TAF Text Data
IDs:
Format:
Raw Decoded Include METAR

Data at: 2358 UTC 27 Feb 2021

Region: TOP
KATL 272331Z 2800/0106 15005KT P6SM FEW025 BKN250
  FM280500 14005KT P6SM SCT012 BKN025
  FM280700 16004KT 5SM BR SCT006 BKN015
  FM280900 16004KT 4SM BR BKN006
  FM281100 17004KT 2SM BR OVC003
  FM281500 21008KT P6SM BKN005
  FM281700 21009KT P6SM BKN020
  FM281900 21010KT P6SM BKN040


KBOS 272320Z 2800/0106 23007KT 6SM -DZ BR BKN008 OVC015
  FM280200 27008KT P6SM SCT250
  FM282200 13006KT P6SM VCSH OVC025
  FM010300 14007KT 3SM -RA BR OVC010


KBWI 272345Z 2800/0106 22004KT P6SM FEW090 BKN250
  FM281000 08004KT 6SM -RA OVC040
  FM281300 09005KT 2SM RA BR OVC008
  FM281700 10006KT 2SM -RA BR OVC003


KCLE 272341Z 2800/0106 21004KT P6SM BKN200
  FM281100 14012G20KT 5SM -SHRA OVC025
  FM281500 17012G20KT P6SM VCSH OVC008
  FM281700 18012G20KT P6SM OVC010
  FM282100 20014G22KT P6SM BKN008
  FM010300 27015G25KT P6SM OVC008


KCLT 272330Z 2800/0106 VRB03KT P6SM FEW012 BKN250
  FM280600 00000KT 5SM BR OVC007
  FM281000 15003KT 1SM BR OVC004
  FM281500 20007KT P6SM OVC005
  FM281800 22012G22KT P6SM BKN060
  FM010000 20008KT P6SM SCT060 BKN250


KCVG 272332Z 2800/0106 13005KT P6SM SCT025 OVC120
  FM280500 12006KT P6SM VCSH OVC015
  FM280700 14006KT 3SM -RA BR OVC008
  FM281000 16006KT 1 1/2SM RA BR OVC005
  FM281800 20008KT 5SM BR OVC008
  FM282100 24010KT P6SM OVC012
  FM010000 30014G20KT P6SM OVC025


KDCA 272345Z 2800/0106 18007KT P6SM FEW040 BKN250
  FM280900 08005KT 6SM -RA OVC040
  FM281300 09006KT 2SM RA BR OVC008
  FM281700 12006KT 2SM -RA BR OVC005


KDEN 272337Z 2800/0106 31014G20KT P6SM FEW080 BKN220
  FM280100 31012KT P6SM FEW090 SCT220
  FM280700 34009KT P6SM FEW090
  FM281800 32007KT P6SM SKC
  FM282300 VRB06KT P6SM SKC
  FM010200 19008KT P6SM SKC


KDFW 272341Z 2800/0106 16014KT P6SM SCT025 BKN040
  FM280700 20012KT P6SM OVC008
  FM281200 20011KT 3SM BR OVC006
  FM281700 31014KT 5SM BR VCTS BKN012CB
  FM282100 36018KT P6SM VCSH BKN015


KDTW 272332Z 2800/0106 18007KT P6SM SKC
  FM280800 11005KT 4SM BR SCT007
  TEMPO 2810/2813 P6SM NSW BKN025
  FM281300 14008KT 4SM -SHRA BR OVC004
  FM281700 18010KT 6SM -SHRA BR OVC007
  FM282200 23013KT P6SM OVC015


KEWR 272340Z 2800/0106 27008KT P6SM FEW015 SCT250
  FM280300 30006KT P6SM SCT250
  FM280800 VRB03KT P6SM BKN200
  FM281500 07004KT P6SM VCSH OVC070
  FM281700 08005KT P6SM -RA SCT015 OVC060
  FM281900 09006KT 5SM -RA BR SCT007 OVC015
  FM282100 09006KT 3SM -RA BR SCT004 OVC007
  FM010200 07006KT 2SM -RA BR SCT004 OVC007


KFLL 272324Z 2800/0106 11015KT P6SM SCT030
  FM280300 11012KT P6SM FEW020
  FM281500 13015G25KT P6SM SCT030 BKN050
  FM010200 13010KT P6SM SCT030


KIAD 272345Z 2800/0106 18004KT P6SM FEW050 BKN100
  FM280800 08004KT 6SM -RA OVC050
  FM281000 10004KT 4SM RA BR OVC030
  FM281200 11006KT 2SM RA BR OVC008
  FM281600 12007KT 2SM -RA BR OVC003


KIAH 272330Z 2800/0106 17011KT P6SM BKN020 OVC030
  FM280300 15008KT P6SM BKN015
  FM280700 16007KT 4SM BR OVC004
  FM281500 16007KT P6SM OVC011
  FM281800 17009KT P6SM BKN020
  FM282100 16007KT P6SM VCSH SCT015 BKN028


KJFK 272340Z 2800/0106 28010KT P6SM FEW015 SCT250
  FM280300 30007KT P6SM SCT250
  FM280900 VRB02KT P6SM BKN200
  FM281500 08005KT P6SM OVC070
  FM281700 09008KT P6SM -RA SCT015 OVC060
  FM281900 10008KT 5SM -RA BR SCT007 OVC015
  FM282100 10008KT 3SM -RA BR SCT004 OVC007
  FM010300 08007KT 2SM -RA BR SCT004 OVC007


KLAS 272357Z 2800/0106 34018G28KT P6SM FEW250
  FM280400 34012G20KT P6SM FEW250
  FM282000 03012G22KT P6SM SKC
  FM010300 22006KT P6SM FEW250


KLAX 272357Z 2800/0106 27015G21KT P6SM SKC
  FM280200 34015G25KT P6SM SKC
  FM280700 04006KT P6SM SKC
  FM281300 08006KT P6SM SKC
  FM282100 25008KT P6SM SKC


KLGA 272340Z 2800/0106 27009KT P6SM FEW015 SCT250
  FM280300 30008KT P6SM SCT250
  FM280900 05003KT P6SM BKN200
  FM281500 07005KT P6SM VCSH OVC070
  FM281700 08008KT P6SM -RA SCT015 OVC060
  FM281900 09008KT 5SM -RA BR SCT007 OVC015
  FM282100 09008KT 3SM -RA BR SCT004 OVC007
  FM010300 08007KT 2SM -RA BR SCT004 OVC007


KMCO 272340Z 2800/0106 10012KT P6SM FEW045 SCT060 BKN090
  FM280100 11006KT P6SM SCT060
  FM281400 15010KT P6SM SCT025 SCT250
  FM010000 14006KT P6SM SCT060 SCT250


KMDW 272336Z 2800/0106 16007KT P6SM BKN250
  FM280800 11006KT 6SM BR OVC012
  FM281000 12007KT 4SM BR OVC006
  TEMPO 2812/2815 1 1/2SM -SHRADZ BR OVC004
  FM281500 21011KT 3SM BR OVC006
  FM281800 24014G24KT P6SM OVC012
  FM282000 28020G33KT P6SM BKN025
  FM010100 30015G25KT P6SM BKN020


KMEM 272331Z 2800/0106 09005KT 3SM RA BR SCT008 OVC015
  FM280100 17008KT P6SM BKN007 OVC250
  FM280600 18011G17KT P6SM OVC012 WS020/19050KT
  FM281100 20012G18KT P6SM VCSH OVC008 WS020/20050KT
  FM281500 21012G18KT P6SM VCSH BKN015 WS020/20040KT
  FM010100 32015KT 5SM RA BR OVC005


KMIA 272324Z 2800/0106 10014KT P6SM SCT030
  FM280300 11012KT P6SM FEW020
  FM281500 13015G25KT P6SM SCT030 BKN050
  FM010200 13010KT P6SM SCT030


KMSP 272333Z 2800/0106 08004KT P6SM OVC100
  FM280400 06005KT P6SM OVC050
  FM280700 03007KT 2SM -SN BR OVC012
  FM281000 36011KT 3/4SM -SN BR VV007
  FM281400 34014G21KT 2SM -SN BR OVC009
  FM281600 32013G22KT P6SM BKN015
  FM282100 29014G22KT P6SM FEW250


KORD 272336Z 2800/0106 16007KT P6SM BKN250
  FM280900 11006KT 6SM BR OVC012
  FM281100 12007KT 4SM BR OVC006
  TEMPO 2812/2815 1 1/2SM -SHRADZ BR OVC004
  FM281500 21011KT 3SM BR OVC006
  FM281800 24014G24KT P6SM OVC012
  FM282000 28020G33KT P6SM BKN025
  FM010100 30015G25KT P6SM BKN020


KPDX 272331Z 2800/2824 24006KT P6SM SCT030 BKN050
  FM280900 17006KT P6SM -DZ SCT015 OVC027
  FM281900 VRB05KT P6SM SCT028 OVC040


KPHL 272326Z 2800/0106 29008KT P6SM FEW030 BKN250
  FM280600 VRB03KT P6SM BKN200
  FM281000 06004KT P6SM SCT035 BKN060
  FM281400 06004KT 4SM -RA BR SCT015 OVC025
  FM281600 06006KT 2SM RA BR OVC004
  FM010300 08004KT 2SM -RA BR FEW005 OVC010


KPHX 272320Z 2800/0106 27010KT P6SM SKC
  FM281800 34015G23KT P6SM SCT100
  FM010200 36009KT P6SM SKC


KPIT 272341Z 2800/0106 28005KT P6SM BKN250
  FM280800 09005KT P6SM VCSH OVC250
  FM281000 11006KT P6SM -SHRA OVC025
  FM281200 13006KT 3SM RA OVC009
  FM281800 15007KT 6SM -RA OVC007
  FM010300 25008KT 6SM -RA OVC010


KSAN 272321Z 2800/0106 28007KT P6SM SKC
  FM280200 VRB04KT P6SM SKC
  FM282000 29009KT P6SM SKC
  FM010200 VRB04KT P6SM SKC


KSEA 272333Z 2800/0106 18008KT P6SM BKN050 BKN120 BKN200
  FM280400 18006KT P6SM SCT025 OVC040
  FM280900 18006KT P6SM -SHRA OVC020
  FM282100 20007KT P6SM BKN022 BKN040
  FM010400 15005KT P6SM SCT025 BKN050


KSFO 272340Z 2800/0106 30017G24KT P6SM SKC
  FM280300 30012KT P6SM SKC
  FM280600 30008KT P6SM SKC WS015/01030KT
  FM280900 VRB04KT P6SM SKC WS015/01025KT
  FM281500 VRB04KT P6SM SKC
  FM282200 36006KT P6SM SKC
  FM010400 VRB04KT P6SM SKC


KSLC 272333Z 2800/0106 34006KT P6SM VCSH SCT025 BKN040
  FM280600 15005KT P6SM SCT050 SCT120
  FM281800 34006KT P6SM FEW050
  FM010300 15005KT P6SM SCT200


KSTL 272325Z 2800/0106 13010KT P6SM OVC250
  FM280300 14007KT P6SM VCSH OVC016
  FM280600 16006KT 4SM RA BR OVC007 WS020/21035KT
  FM281100 20005KT P6SM OVC008
  FM281700 28009KT P6SM BKN018
  FM282000 31011G18KT P6SM BKN040
  FM010000 34009KT P6SM BKN250


KTPA 272320Z 2800/0106 24006KT P6SM SCT250
  FM280200 VRB03KT P6SM SCT200
  FM280700 11004KT P6SM FEW250
  FM281500 15008KT P6SM SCT250
  FM282100 24009KT P6SM FEW200
  FM010200 VRB03KT P6SM SCT200